Time;durP1;ratioP1;P1;durP2;ratioP2;P2;SDS_P1;SDS_P2;PMS_P1;PMS_P2;Temp;Humidity;BMP_temperature;BMP_pressure;BME280_temperature;BME280_humidity;BME280_pressure;Samples;Min_cycle;Max_cycle;Signal;HPM_P1;HPM_P2
2022/06/16 00:00:47;;;;;;;;;16.00;13.00;;;;;14.21;85.52;99901.38;6279336;20;3546476;-62
2022/06/16 00:03:15;;;;;;;;;15.00;15.00;;;;;14.14;86.01;99893.84;6282124;20;2500285;-62
2022/06/16 00:05:45;;;;;;;;;15.00;13.50;;;;;14.33;85.65;99901.47;6282917;20;2802369;-61
2022/06/16 00:08:18;;;;;;;;;17.00;14.00;;;;;14.64;84.48;99898.25;6283337;20;2825274;-62
2022/06/16 00:13:39;;;;;;;;;18.67;17.00;;;;;14.02;86.09;99892.91;6279833;20;2823211;-62
2022/06/16 00:16:09;;;;;;;;;18.00;14.00;;;;;13.78;86.55;99891.00;6317648;20;2814975;-62
2022/06/16 00:18:40;;;;;;;;;17.00;15.00;;;;;13.57;87.94;99889.84;6279160;20;3553478;-61
2022/06/16 00:21:10;;;;;;;;;16.33;16.33;;;;;13.69;88.72;99888.97;6281014;20;3560693;-61
2022/06/16 00:23:40;;;;;;;;;15.33;15.33;;;;;13.35;89.46;99882.41;6273059;20;3540921;-62
2022/06/16 00:26:28;;;;;;;;;16.00;16.00;;;;;13.17;90.21;99881.81;6283114;20;2831561;-59
2022/06/16 00:28:57;;;;;;;;;17.00;15.33;;;;;13.35;89.61;99880.56;6281556;20;3557604;-53
2022/06/16 00:31:28;;;;;;;;;15.00;15.00;;;;;13.28;89.86;99873.88;6283957;20;2819070;-58
2022/06/16 00:33:57;;;;;;;;;17.33;16.33;;;;;13.47;89.33;99883.38;6282526;20;3552353;-54
2022/06/16 00:36:25;;;;;;;;;15.00;14.00;;;;;12.98;90.79;99882.22;6280782;20;2496104;-58
2022/06/16 00:38:53;;;;;;;;;13.00;13.00;;;;;13.28;90.36;99884.66;6282727;20;2808594;-58
2022/06/16 00:41:21;;;;;;;;;15.00;15.00;;;;;13.41;89.07;99873.00;6277822;20;2485669;-58
2022/06/16 00:43:49;;;;;;;;;12.00;12.00;;;;;13.58;88.87;99878.06;6280821;20;2786706;-58
2022/06/16 00:46:20;;;;;;;;;13.67;13.00;;;;;13.63;87.85;99873.19;6282070;20;3539857;-61
2022/06/16 00:49:00;;;;;;;;;14.67;13.67;;;;;12.98;89.59;99871.44;6279935;20;3535719;-60
2022/06/16 00:51:45;;;;;;;;;16.67;13.67;;;;;12.92;90.96;99877.22;6277366;20;3538930;-53
2022/06/16 00:54:37;;;;;;;;;16.00;14.00;;;;;13.29;88.40;99880.97;6278987;20;3540221;-54
2022/06/16 00:57:16;;;;;;;;;15.67;15.00;;;;;12.83;90.08;99876.03;6309879;20;3539976;-55
2022/06/16 00:59:46;;;;;;;;;14.33;14.33;;;;;12.91;90.57;99876.38;6278161;20;3539838;-61
2022/06/16 01:02:24;;;;;;;;;16.00;14.67;;;;;13.04;91.01;99875.53;6310635;20;3543996;-59
2022/06/16 01:04:53;;;;;;;;;15.00;13.67;;;;;12.98;90.48;99866.06;6279199;20;3531469;-60
2022/06/16 01:07:35;;;;;;;;;13.00;13.00;;;;;12.89;91.37;99872.06;6312291;20;2790943;-61
2022/06/16 01:10:05;;;;;;;;;15.00;15.00;;;;;12.94;91.05;99862.69;6283106;20;2491921;-61
2022/06/16 01:16:26;;;;;;;;;19.33;16.67;;;;;13.04;91.34;99860.22;6282751;20;2824277;-60
2022/06/16 01:19:58;;;;;;;;;18.00;14.33;;;;;13.13;90.43;99853.31;6312508;20;2809765;-61
2022/06/16 01:23:06;;;;;;;;;15.00;13.00;;;;;13.45;88.63;99861.03;6307054;20;3539835;-61
2022/06/16 01:25:53;;;;;;;;;15.67;13.67;;;;;13.87;86.15;99859.78;6273360;20;3533572;-60
2022/06/16 01:28:45;;;;;;;;;19.00;14.00;;;;;13.72;86.11;99858.22;6309153;20;3540868;-61
2022/06/16 01:31:43;;;;;;;;;13.67;13.33;;;;;14.08;85.22;99865.44;6273867;20;3533701;-60
2022/06/16 01:34:44;;;;;;;;;17.33;13.00;;;;;13.98;85.17;99859.00;6309124;20;3548150;-60
2022/06/16 01:37:29;;;;;;;;;12.50;12.50;;;;;13.76;85.56;99851.59;6286737;20;2795073;-60
2022/06/16 01:40:42;;;;;;;;;15.33;15.33;;;;;13.81;86.67;99855.69;6279691;20;2821308;-61
2022/06/16 01:43:19;;;;;;;;;13.00;13.00;;;;;13.58;88.26;99853.78;6308182;20;3519131;-60
2022/06/16 01:45:57;;;;;;;;;14.67;13.67;;;;;12.84;91.30;99853.50;6309688;20;3533705;-60
2022/06/16 01:48:29;;;;;;;;;15.33;14.67;;;;;12.92;91.06;99855.66;6281202;20;3527333;-60
2022/06/16 01:51:13;;;;;;;;;16.00;13.00;;;;;13.37;89.01;99859.72;6276560;20;3531727;-60
2022/06/16 01:54:15;;;;;;;;;14.67;14.67;;;;;13.48;87.22;99858.09;6275734;20;3533654;-60
2022/06/16 01:57:33;;;;;;;;;14.67;13.00;;;;;13.51;86.47;99847.97;6308965;20;3539809;-60
2022/06/16 02:00:25;;;;;;;;;17.67;15.33;;;;;13.63;85.28;99851.63;6275057;20;3552389;-60
2022/06/16 02:03:06;;;;;;;;;13.00;13.00;;;;;13.33;85.94;99846.59;6278018;20;3528525;-61
2022/06/16 02:06:23;;;;;;;;;11.33;11.00;;;;;13.18;86.12;99845.78;6309065;20;3532638;-61
2022/06/16 02:09:22;;;;;;;;;14.33;14.00;;;;;13.13;86.03;99846.09;6310070;20;3525244;-60
2022/06/16 02:11:51;;;;;;;;;13.00;12.00;;;;;13.10;86.11;99849.00;6307682;20;3529632;-61
2022/06/16 02:14:41;;;;;;;;;15.33;13.00;;;;;13.07;86.71;99845.69;6309054;20;3541939;-60
2022/06/16 02:17:10;;;;;;;;;19.67;15.67;;;;;13.20;86.82;99843.84;6308149;20;3548207;-60
2022/06/16 02:19:40;;;;;;;;;14.00;14.00;;;;;13.20;87.04;99843.00;6279286;20;3530494;-60
2022/06/16 02:22:08;;;;;;;;;12.00;12.00;;;;;13.15;87.43;99846.00;6307076;20;2782741;-60
2022/06/16 02:24:37;;;;;;;;;14.33;13.33;;;;;13.19;87.48;99847.50;6277654;20;3531496;-61
2022/06/16 02:27:05;;;;;;;;;14.00;14.00;;;;;13.53;85.81;99850.53;6277436;20;2496080;-60
2022/06/16 02:29:38;;;;;;;;;13.50;13.00;;;;;13.59;85.54;99855.53;6280000;20;2500267;-60
2022/06/16 02:33:02;;;;;;;;;14.33;13.00;;;;;13.57;85.38;99854.75;6278566;20;3529418;-60
2022/06/16 02:35:50;;;;;;;;;17.50;14.50;;;;;13.45;85.92;99852.94;6278283;20;2810699;-61
2022/06/16 02:39:11;;;;;;;;;19.67;15.67;;;;;13.39;86.21;99855.09;6279457;20;2824302;-61
2022/06/16 02:42:02;;;;;;;;;17.00;17.00;;;;;13.41;86.47;99862.22;6307996;20;3558670;-61
2022/06/16 02:45:30;;;;;;;;;16.00;13.67;;;;;13.21;86.81;99850.09;6276890;20;3542017;-61
2022/06/16 02:48:21;;;;;;;;;14.33;13.00;;;;;13.10;87.61;99848.16;6313505;20;3546081;-61
2022/06/16 02:51:10;;;;;;;;;14.67;14.67;;;;;13.53;86.14;99850.53;6279128;20;3536756;-60
2022/06/16 02:54:10;;;;;;;;;17.67;15.00;;;;;13.36;86.47;99849.91;6285092;20;3546101;-61
2022/06/16 02:57:33;;;;;;;;;17.00;15.00;;;;;13.07;88.84;99842.97;6278908;20;3546121;-60
2022/06/16 03:00:12;;;;;;;;;15.00;14.00;;;;;13.38;87.21;99850.69;6276695;20;2500274;-60
2022/06/16 03:02:42;;;;;;;;;16.00;14.00;;;;;13.32;87.68;99859.22;6282885;20;3544024;-60
2022/06/16 03:05:15;;;;;;;;;14.00;14.00;;;;;13.41;86.71;99862.22;6282988;20;2807607;-60
2022/06/16 03:07:44;;;;;;;;;16.50;14.50;;;;;13.46;86.37;99866.31;6285159;20;2492051;-61
2022/06/16 03:10:50;;;;;;;;;16.33;16.33;;;;;13.68;84.83;99871.03;6282097;20;3553529;-60
2022/06/16 03:13:08;;;;;;;;;16.33;15.33;;;;;13.58;84.87;99867.28;6283954;20;3551288;-61
2022/06/16 03:15:37;;;;;;;;;17.33;16.00;;;;;13.66;84.81;99872.97;6284576;20;3560756;-61
2022/06/16 03:18:04;;;;;;;;;16.00;13.50;;;;;13.93;83.44;99863.88;6284371;20;2500329;-61
2022/06/16 03:20:33;;;;;;;;;15.00;14.00;;;;;13.78;83.63;99872.09;6282035;20;2491908;-60
2022/06/16 03:23:00;;;;;;;;;17.00;15.50;;;;;13.99;83.19;99868.84;6284553;20;2491954;-61
2022/06/16 03:25:29;;;;;;;;;17.33;15.33;;;;;14.11;82.60;99873.31;6284025;20;3554614;-61
2022/06/16 03:27:58;;;;;;;;;13.33;12.33;;;;;13.95;83.03;99868.19;6314910;20;3526293;-61
2022/06/16 03:30:26;;;;;;;;;14.50;14.50;;;;;13.57;85.96;99862.84;6283658;20;2803444;-61
2022/06/16 03:32:55;;;;;;;;;14.33;14.33;;;;;14.00;84.18;99870.56;6282374;20;3535684;-60
2022/06/16 03:35:24;;;;;;;;;14.67;14.67;;;;;13.55;86.96;99864.78;6314371;20;3523182;-61
2022/06/16 03:37:52;;;;;;;;;16.67;16.33;;;;;13.82;85.21;99865.53;6314302;20;3561682;-60
2022/06/16 03:40:22;;;;;;;;;19.67;15.00;;;;;13.36;87.69;99865.25;6283697;20;3548331;-60
2022/06/16 03:42:51;;;;;;;;;17.00;16.00;;;;;13.68;86.33;99860.25;6280378;20;3558635;-60
2022/06/16 03:45:19;;;;;;;;;13.00;13.00;;;;;13.85;85.78;99867.16;6284486;20;2803431;-60
2022/06/16 03:47:48;;;;;;;;;14.67;14.67;;;;;13.75;87.25;99868.78;6282249;20;3530452;-60
2022/06/16 03:50:19;;;;;;;;;14.00;14.00;;;;;13.64;87.42;99866.84;6280248;20;3527317;-60
2022/06/16 03:52:47;;;;;;;;;14.00;14.00;;;;;14.04;86.36;99866.66;6318464;20;2787751;-60
2022/06/16 03:55:16;;;;;;;;;15.00;13.67;;;;;14.27;84.49;99868.53;6285257;20;3531668;-60
2022/06/16 03:57:46;;;;;;;;;17.33;15.67;;;;;13.96;86.32;99864.53;6285656;20;2827347;-60
2022/06/16 04:00:17;;;;;;;;;15.67;15.33;;;;;13.98;86.71;99873.38;6309005;20;3550237;-59
2022/06/16 04:02:47;;;;;;;;;18.00;16.00;;;;;14.30;85.56;99880.06;6276533;20;2491935;-59
2022/06/16 04:05:14;;;;;;;;;16.50;16.00;;;;;14.18;85.42;99877.31;6281771;20;2494211;-60
2022/06/16 04:07:43;;;;;;;;;19.00;16.00;;;;;14.46;84.33;99880.69;6281950;20;3553463;-60
2022/06/16 04:10:12;;;;;;;;;17.50;16.00;;;;;14.35;83.72;99876.06;6281405;20;2489964;-60
2022/06/16 04:12:40;;;;;;;;;13.00;13.00;;;;;14.47;83.71;99874.28;6282130;20;3531546;-59
2022/06/16 04:15:09;;;;;;;;;17.00;15.50;;;;;14.61;83.60;99875.97;6278545;20;2498197;-63
2022/06/16 04:17:37;;;;;;;;;17.00;15.00;;;;;14.57;83.08;99872.66;6278153;20;3546116;-63
2022/06/16 04:20:13;;;;;;;;;18.00;15.33;;;;;14.94;82.07;99872.56;6275585;20;3552467;-63
2022/06/16 04:22:43;;;;;;;;;19.33;16.67;;;;;14.96;82.13;99881.44;6279280;20;3563824;-63
2022/06/16 04:25:15;;;;;;;;;16.33;15.33;;;;;15.10;82.42;99878.50;6283410;20;3548170;-64
2022/06/16 04:27:45;;;;;;;;;12.67;12.67;;;;;14.99;81.87;99885.75;6274844;20;3535874;-63
2022/06/16 04:30:15;;;;;;;;;15.00;13.00;;;;;15.34;79.95;99880.28;6284736;20;2804457;-63
2022/06/16 04:32:44;;;;;;;;;20.33;16.33;;;;;15.27;80.47;99889.84;6269974;20;3554553;-64
2022/06/16 04:35:13;;;;;;;;;13.33;13.33;;;;;15.53;78.05;99885.09;6278871;20;3531587;-64
2022/06/16 04:37:41;;;;;;;;;17.00;17.00;;;;;15.56;77.20;99885.75;6306959;20;2483612;-65
2022/06/16 04:40:11;;;;;;;;;14.33;14.33;;;;;16.06;76.20;99889.94;6279073;20;3537795;-65
2022/06/16 04:42:40;;;;;;;;;18.00;15.00;;;;;15.94;75.75;99889.97;6273122;20;3548213;-63
2022/06/16 04:45:10;;;;;;;;;15.00;13.67;;;;;16.14;75.71;99884.75;6277239;20;3541929;-64
2022/06/16 04:47:39;;;;;;;;;12.00;12.00;;;;;16.34;75.19;99892.13;6278293;20;2800274;-64
2022/06/16 04:50:11;;;;;;;;;16.67;16.00;;;;;16.55;74.28;99891.34;6276947;20;2489849;-63
2022/06/16 04:52:39;;;;;;;;;14.00;14.00;;;;;16.67;73.53;99898.47;6310861;20;2811045;-64
2022/06/16 04:55:09;;;;;;;;;18.00;14.67;;;;;16.78;73.24;99886.75;6278934;20;3544002;-63
2022/06/16 04:57:37;;;;;;;;;15.00;13.50;;;;;16.88;73.73;99891.25;6271809;20;2498221;-66
2022/06/16 05:00:14;;;;;;;;;17.33;16.00;;;;;17.01;73.73;99896.50;6281634;20;2825415;-65
2022/06/16 05:02:50;;;;;;;;;17.00;12.50;;;;;17.17;73.19;99889.75;6309560;20;2485935;-66
2022/06/16 05:05:19;;;;;;;;;14.00;14.00;;;;;17.41;71.78;99889.50;6282610;20;2806491;-67
2022/06/16 05:07:47;;;;;;;;;16.00;16.00;;;;;17.60;72.32;99895.03;6279545;20;3548135;-66
2022/06/16 05:10:16;;;;;;;;;15.67;14.33;;;;;17.75;71.91;99888.28;6280586;20;2815509;-66
2022/06/16 05:12:45;;;;;;;;;15.33;15.33;;;;;17.97;70.31;99889.09;6311277;20;3537727;-62
2022/06/16 05:15:14;;;;;;;;;19.67;16.67;;;;;18.44;70.23;99892.13;6286482;20;3552696;-62
2022/06/16 05:17:42;;;;;;;;;14.00;14.00;;;;;18.55;69.75;99883.81;6311852;20;2804440;-62
2022/06/16 05:20:11;;;;;;;;;17.50;16.00;;;;;19.02;68.38;99889.47;6279129;20;2483769;-62
2022/06/16 05:22:40;;;;;;;;;14.67;14.33;;;;;19.23;67.59;99889.31;6278454;20;3531557;-62
2022/06/16 05:25:09;;;;;;;;;18.00;16.00;;;;;19.23;66.45;99892.03;6280832;20;3548160;-62
2022/06/16 05:27:38;;;;;;;;;13.00;13.00;;;;;19.44;66.21;99885.56;6277835;20;3527490;-61
2022/06/16 05:30:07;;;;;;;;;12.50;12.00;;;;;19.69;66.23;99887.66;6283534;20;2800323;-60
2022/06/16 05:32:36;;;;;;;;;12.33;12.33;;;;;19.78;66.70;99888.66;6281566;20;3521128;-60
2022/06/16 05:35:05;;;;;;;;;13.00;13.00;;;;;20.15;63.26;99885.91;6281875;20;3523242;-61
2022/06/16 05:37:35;;;;;;;;;16.00;14.50;;;;;20.37;62.77;99889.25;6278986;20;2807549;-60
2022/06/16 05:40:05;;;;;;;;;16.50;15.00;;;;;20.52;63.42;99882.25;6280979;20;2816943;-61
2022/06/16 05:42:32;;;;;;;;;9.00;8.50;;;;;20.70;62.77;99884.19;6285191;20;2745117;-60
2022/06/16 05:45:01;;;;;;;;;12.00;12.00;;;;;20.73;63.40;99889.34;6282759;20;3535680;-62
2022/06/16 05:47:30;;;;;;;;;16.33;12.33;;;;;20.61;63.02;99889.53;6281100;20;3526309;-62
2022/06/16 05:49:59;;;;;;;;;12.33;11.33;;;;;20.90;62.96;99879.41;6311525;20;3536701;-62
2022/06/16 05:52:28;;;;;;;;;12.67;12.33;;;;;21.25;61.12;99879.41;6280157;20;3535671;-63
2022/06/16 05:54:57;;;;;;;;;14.00;13.00;;;;;21.51;60.47;99881.31;6280883;20;2810648;-63
2022/06/16 05:57:25;;;;;;;;;13.50;13.50;;;;;21.68;61.58;99883.16;6310186;20;2483617;-61
2022/06/16 05:59:53;;;;;;;;;13.67;13.00;;;;;21.78;59.65;99884.94;6279188;20;3531573;-61
2022/06/16 06:02:22;;;;;;;;;12.33;12.33;;;;;22.14;58.73;99886.47;6280513;20;2483653;-61
2022/06/16 06:04:51;;;;;;;;;12.00;12.00;;;;;22.63;58.02;99890.44;6316921;20;2801936;-60
2022/06/16 06:07:19;;;;;;;;;13.67;11.67;;;;;22.62;57.91;99885.97;6311843;20;3522472;-60
2022/06/16 06:18:22;;;;;;;;;13.00;11.00;;;;;23.41;57.52;99890.88;6314835;20;2790897;-58
2022/06/16 06:20:51;;;;;;;;;11.33;10.00;;;;;23.57;56.25;99889.16;6307394;20;3513801;-58
2022/06/16 06:23:19;;;;;;;;;12.00;10.00;;;;;23.97;55.92;99895.59;6279186;20;3507744;-60
2022/06/16 06:25:48;;;;;;;;;12.00;10.67;;;;;24.35;55.30;99890.31;6320986;20;2801417;-62
2022/06/16 06:28:21;;;;;;;;;13.00;11.67;;;;;24.74;53.04;99893.03;6317737;20;2802381;-63
2022/06/16 06:30:50;;;;;;;;;12.67;11.00;;;;;24.49;52.92;99900.59;6317224;20;3531476;-61
2022/06/16 06:33:20;;;;;;;;;7.00;7.00;;;;;25.23;52.87;99890.00;6311768;20;2738963;-58
2022/06/16 06:35:48;;;;;;;;;11.67;11.67;;;;;25.23;51.48;99898.22;6315522;20;3525387;-58
2022/06/16 06:38:17;;;;;;;;;14.33;12.00;;;;;25.35;50.67;99895.88;6319380;20;3536694;-58
2022/06/16 06:40:45;;;;;;;;;11.67;9.67;;;;;25.89;49.96;99898.50;6316653;20;3507572;-58
2022/06/16 06:43:14;;;;;;;;;10.00;10.00;;;;;26.18;50.05;99908.66;6314520;20;3510648;-63
2022/06/16 06:45:43;;;;;;;;;10.00;9.00;;;;;25.81;50.11;99899.41;6323739;20;2773264;-60
2022/06/16 06:48:11;;;;;;;;;10.00;9.00;;;;;26.27;50.39;99906.66;6316027;20;3481602;-58
2022/06/16 06:50:40;;;;;;;;;8.67;8.67;;;;;26.55;47.93;99894.97;6313489;20;2756934;-59
2022/06/16 06:53:10;;;;;;;;;9.33;9.00;;;;;26.68;48.97;99903.41;6315284;20;2760783;-61
2022/06/16 06:55:45;;;;;;;;;10.00;9.00;;;;;26.85;49.25;99909.50;6322141;20;2761738;-58
2022/06/16 06:58:23;;;;;;;;;8.20;6.40;;;;;27.38;47.44;99914.75;6337864;20;2746142;-58
2022/06/16 07:00:56;;;;;;;;;8.33;8.33;;;;;27.40;47.32;99907.13;6294402;20;2746127;-58
2022/06/16 07:03:25;;;;;;;;;9.33;9.33;;;;;27.60;46.21;99908.16;6315977;20;2764834;-62
2022/06/16 07:05:54;;;;;;;;;11.00;9.67;;;;;27.27;43.29;99908.72;6316218;20;2777358;-63
2022/06/16 07:08:23;;;;;;;;;9.67;9.00;;;;;27.60;46.23;99916.44;6313486;20;2768072;-62
2022/06/16 07:10:51;;;;;;;;;11.00;8.33;;;;;27.76;44.56;99910.63;6314232;20;2775424;-63
2022/06/16 07:13:20;;;;;;;;;7.33;7.33;;;;;27.55;45.31;99905.16;6324952;20;2751368;-64
2022/06/16 07:15:48;;;;;;;;;10.67;8.00;;;;;28.10;44.15;99908.13;6324712;20;2765902;-63
2022/06/16 07:18:17;;;;;;;;;7.67;7.67;;;;;28.67;43.11;99899.50;6321050;20;2750256;-63
2022/06/16 07:20:47;;;;;;;;;7.00;7.00;;;;;28.75;41.77;99900.38;6318781;20;2746110;-65
2022/06/16 07:23:18;;;;;;;;;8.33;8.00;;;;;28.86;41.93;99902.53;6316132;20;2756543;-64
2022/06/16 07:25:50;;;;;;;;;4.80;4.80;;;;;28.03;42.24;99899.78;6345657;20;2741943;-64
2022/06/16 07:28:21;;;;;;;;;9.00;7.20;;;;;28.06;42.13;99899.38;6312354;20;2733569;-63
2022/06/16 07:30:49;;;;;;;;;10.00;8.00;;;;;28.24;41.60;99902.47;6294966;20;2763784;-63
2022/06/16 07:33:18;;;;;;;;;11.33;9.67;;;;;28.99;42.12;99908.09;6317920;20;2780522;-61
2022/06/16 07:35:46;;;;;;;;;7.33;7.33;;;;;28.88;41.88;99906.81;6321245;20;2752330;-64
2022/06/16 07:38:15;;;;;;;;;8.00;8.00;;;;;29.17;40.46;99904.75;6322377;20;2740531;-62
2022/06/16 07:40:43;;;;;;;;;8.00;8.00;;;;;29.08;37.32;99904.09;6318428;20;3453452;-63
2022/06/16 07:43:12;;;;;;;;;10.67;8.00;;;;;29.51;39.11;99900.94;6317774;20;2762854;-62
2022/06/16 07:45:42;;;;;;;;;8.80;7.20;;;;;29.12;39.75;99900.91;6342967;20;2745077;-62
2022/06/16 07:48:11;;;;;;;;;10.00;8.00;;;;;29.69;39.49;99891.19;6288486;20;2761746;-64
2022/06/16 07:50:39;;;;;;;;;9.00;9.00;;;;;30.00;38.82;99903.50;6318337;20;2771094;-62
2022/06/16 07:53:08;;;;;;;;;6.67;5.00;;;;;30.04;36.81;99899.22;6321623;20;2736725;-62
2022/06/16 07:55:37;;;;;;;;;8.00;8.00;;;;;30.28;35.81;99898.56;6319943;20;2744023;-61
2022/06/16 07:58:05;;;;;;;;;7.00;7.00;;;;;30.43;36.16;99902.97;6320796;20;2752330;-61
2022/06/16 08:00:35;;;;;;;;;9.00;7.00;;;;;30.04;36.37;99893.69;6315386;20;2744031;-60
2022/06/16 08:03:04;;;;;;;;;7.33;4.67;;;;;30.16;35.43;99892.81;6322136;20;2728613;-61
2022/06/16 08:05:33;;;;;;;;;6.67;5.33;;;;;29.83;35.63;99895.63;6321832;20;2735700;-60
2022/06/16 08:08:02;;;;;;;;;4.67;4.67;;;;;29.44;35.46;99889.03;6331360;20;2730496;-60
2022/06/16 08:10:35;;;;;;;;;7.00;7.00;;;;;30.18;35.49;99887.91;6320483;20;2741946;-61
2022/06/16 08:13:05;;;;;;;;;1.60;1.60;;;;;29.53;34.98;99886.91;6346576;20;2731513;-60
2022/06/16 08:15:33;;;;;;;;;6.67;5.33;;;;;29.84;33.74;99890.97;6321040;20;2734687;-61
2022/06/16 08:18:03;;;;;;;;;6.00;6.00;;;;;30.30;31.55;99888.09;6344635;20;2741014;-62
2022/06/16 08:20:32;;;;;;;;;5.67;4.00;;;;;30.24;30.24;99894.53;6296203;20;2739922;-61
2022/06/16 08:23:00;;;;;;;;;6.00;6.00;;;;;30.32;30.28;99879.56;6318384;20;2739982;-62
2022/06/16 08:25:31;;;;;;;;;4.80;4.80;;;;;30.30;30.94;99888.09;6344833;20;2732546;-62
2022/06/16 08:28:03;;;;;;;;;7.80;6.20;;;;;30.62;30.61;99885.41;6310618;20;2741919;-61
2022/06/16 08:30:33;;;;;;;;;6.00;5.00;;;;;29.22;33.58;99895.81;6285870;20;2739857;-60
2022/06/16 08:33:02;;;;;;;;;5.67;5.67;;;;;30.30;31.96;99893.63;6317615;20;2735667;-59
2022/06/16 08:35:31;;;;;;;;;6.67;5.67;;;;;30.77;30.82;99897.06;6320021;20;2739892;-59
2022/06/16 08:38:00;;;;;;;;;6.67;5.33;;;;;30.35;32.31;99895.75;6322728;20;2713799;-61
2022/06/16 08:40:29;;;;;;;;;7.67;6.00;;;;;29.86;32.61;99886.91;6320852;20;2740885;-60
2022/06/16 08:43:08;;;;;;;;;7.00;6.00;;;;;29.94;31.72;99889.47;6314132;20;2744049;-61
2022/06/16 08:46:01;;;;;;;;;5.00;5.00;;;;;30.23;33.14;99886.38;6319845;20;2735754;-61
2022/06/16 08:48:58;;;;;;;;;7.00;7.00;;;;;29.55;33.17;99884.78;6322432;20;2452370;-60
2022/06/16 08:52:08;;;;;;;;;6.33;6.33;;;;;29.83;33.31;99890.09;6317190;20;2738814;-61
2022/06/16 08:55:02;;;;;;;;;7.00;7.00;;;;;30.55;31.39;99890.16;6317330;20;2735794;-62
2022/06/16 08:57:56;;;;;;;;;6.00;6.00;;;;;30.18;31.91;99896.22;6318192;20;2733694;-62
2022/06/16 09:00:39;;;;;;;;;7.00;5.33;;;;;30.74;32.60;99891.97;6317164;20;2738885;-61
2022/06/16 09:03:41;;;;;;;;;5.67;5.67;;;;;30.09;31.56;99896.66;6318573;20;2738788;-61
2022/06/16 09:06:34;;;;;;;;;5.00;5.00;;;;;29.95;32.22;99895.84;6323435;20;2737832;-59
2022/06/16 09:10:15;;;;;;;;;7.33;6.00;;;;;30.99;30.43;99893.97;6316479;20;2744167;-60
2022/06/16 09:13:30;;;;;;;;;5.40;5.00;;;;;31.33;30.39;99900.16;6341667;20;2747219;-61
2022/06/16 09:16:19;;;;;;;;;6.00;6.00;;;;;29.81;30.76;99892.25;6290774;20;2739837;-59
2022/06/16 09:19:17;;;;;;;;;5.33;5.33;;;;;30.47;30.40;99895.94;6319990;20;2739838;-60
2022/06/16 09:22:39;;;;;;;;;7.00;7.00;;;;;31.15;29.96;99896.25;6320443;20;2737776;-60
2022/06/16 09:26:17;;;;;;;;;5.00;5.00;;;;;31.30;29.51;99889.50;6314728;20;2742978;-59
2022/06/16 09:30:16;;;;;;;;;5.00;5.00;;;;;30.47;29.89;99893.19;6321026;20;2735705;-60
2022/06/16 09:33:02;;;;;;;;;4.67;4.67;;;;;31.30;28.65;99895.06;6316316;20;2734648;-60
2022/06/16 09:36:06;;;;;;;;;4.00;4.00;;;;;30.11;31.61;99894.53;6317398;20;2741919;-59
2022/06/16 09:38:44;;;;;;;;;5.00;5.00;;;;;30.91;29.81;99897.00;6322942;20;2742152;-60
2022/06/16 09:44:39;;;;;;;;;7.33;4.67;;;;;31.66;28.82;99888.81;6315800;20;2742998;-61
2022/06/16 09:47:16;;;;;;;;;5.00;5.00;;;;;30.90;29.75;99884.25;6327429;20;2739922;-59
2022/06/16 09:50:06;;;;;;;;;5.67;5.67;;;;;30.51;29.19;99880.56;6323716;20;2737854;-60
2022/06/16 09:53:42;;;;;;;;;5.00;5.00;;;;;30.51;29.51;99875.88;6339042;20;2747111;-60
2022/06/16 09:56:53;;;;;;;;;5.20;5.20;;;;;30.27;29.60;99871.06;6308828;20;2738840;-60
2022/06/16 10:00:00;;;;;;;;;6.00;6.00;;;;;30.59;29.50;99866.44;6285502;20;2742985;-59
2022/06/16 10:02:50;;;;;;;;;7.00;7.00;;;;;31.15;29.16;99865.72;6340047;20;2746084;-61
2022/06/16 10:06:08;;;;;;;;;6.00;6.00;;;;;30.76;29.91;99862.09;6282777;20;2731486;-61
2022/06/16 10:09:03;;;;;;;;;6.00;5.67;;;;;31.05;27.85;99859.81;6314693;20;2726333;-61
2022/06/16 10:12:08;;;;;;;;;6.00;6.00;;;;;30.84;29.46;99861.03;6312462;20;2728374;-61
2022/06/16 10:15:04;;;;;;;;;6.67;6.67;;;;;31.09;28.77;99858.28;6326437;20;2738801;-61
2022/06/16 10:17:36;;;;;;;;;7.00;4.00;;;;;30.83;28.34;99860.19;6315943;20;2745059;-57
2022/06/16 10:20:06;;;;;;;;;6.67;5.67;;;;;30.75;27.85;99865.94;6315835;20;2741068;-58
2022/06/16 10:22:39;;;;;;;;;6.00;6.00;;;;;30.72;27.89;99862.75;6321248;20;2450274;-61
2022/06/16 10:25:31;;;;;;;;;6.67;6.67;;;;;30.97;28.31;99869.25;6313886;20;2740901;-59
2022/06/16 10:28:31;;;;;;;;;4.00;4.00;;;;;31.10;27.52;99865.56;6317024;20;2732687;-58
2022/06/16 10:31:04;;;;;;;;;6.00;6.00;;;;;30.59;28.06;99858.13;6315975;20;2744481;-67
2022/06/16 10:33:55;;;;;;;;;6.67;5.00;;;;;30.68;27.12;99850.44;6324990;20;2745081;-58
2022/06/16 10:36:26;;;;;;;;;5.33;4.00;;;;;30.30;27.40;99846.53;6316666;20;2750284;-59
2022/06/16 10:39:22;;;;;;;;;6.60;4.00;;;;;30.50;29.47;99846.47;6342134;20;2747157;-58
2022/06/16 10:42:12;;;;;;;;;5.33;4.00;;;;;30.39;29.38;99848.00;6281619;20;2750352;-59
2022/06/16 10:44:55;;;;;;;;;5.67;5.67;;;;;30.88;29.20;99851.16;6314755;20;2736737;-60
2022/06/16 10:47:51;;;;;;;;;5.00;5.00;;;;;30.25;29.52;99840.81;6316811;20;2733640;-61
2022/06/16 10:50:43;;;;;;;;;5.67;5.67;;;;;30.91;28.91;99836.00;6313277;20;2739946;-61
2022/06/16 10:53:23;;;;;;;;;6.67;4.00;;;;;30.95;28.74;99840.91;6313633;20;2739844;-61
2022/06/16 10:56:07;;;;;;;;;5.00;5.00;;;;;30.24;28.52;99839.13;6319176;20;2733705;-62
2022/06/16 10:59:01;;;;;;;;;5.67;5.67;;;;;31.15;29.15;99842.66;6314700;20;2748186;-61
2022/06/16 11:01:56;;;;;;;;;7.33;5.00;;;;;30.96;27.84;99839.81;6314786;20;2733638;-60
2022/06/16 11:04:37;;;;;;;;;7.00;5.67;;;;;31.14;28.58;99836.25;6315132;20;2744104;-62
2022/06/16 11:07:13;;;;;;;;;6.20;6.20;;;;;31.02;29.05;99841.69;6341118;20;2746123;-60
2022/06/16 11:09:41;;;;;;;;;6.00;6.00;;;;;30.36;28.25;99834.59;6288750;20;2732523;-62
2022/06/16 11:12:22;;;;;;;;;7.67;5.67;;;;;31.28;28.02;99845.31;6318177;20;2746095;-60
2022/06/16 11:15:28;;;;;;;;;3.67;3.67;;;;;30.61;28.31;99842.13;6319164;20;2736769;-61
2022/06/16 11:18:02;;;;;;;;;4.33;4.33;;;;;31.07;27.55;99832.72;6320130;20;2745083;-48
2022/06/16 11:20:50;;;;;;;;;6.00;6.00;;;;;31.07;28.29;99832.72;6325545;20;2744253;-61
2022/06/16 11:23:44;;;;;;;;;4.67;4.67;;;;;31.41;27.58;99833.28;6319356;20;2733169;-62
2022/06/16 11:26:15;;;;;;;;;5.00;5.00;;;;;31.71;26.72;99841.78;6321245;20;2750267;-61
2022/06/16 11:28:56;;;;;;;;;4.00;4.00;;;;;30.95;27.52;99823.41;6322114;20;2746083;-62
2022/06/16 11:31:44;;;;;;;;;4.00;4.00;;;;;31.42;28.24;99829.47;6316304;20;2743019;-62
2022/06/16 11:34:28;;;;;;;;;4.60;4.60;;;;;30.09;28.83;99817.19;6346440;20;2733622;-61
2022/06/16 11:37:08;;;;;;;;;5.67;5.67;;;;;30.09;27.82;99824.66;6291981;20;2735692;-63
2022/06/16 11:40:00;;;;;;;;;5.60;4.40;;;;;30.35;29.05;99810.72;6343430;20;2748205;-63
2022/06/16 11:43:05;;;;;;;;;6.00;6.00;;;;;30.04;28.51;99807.84;6285154;20;2747130;-64
2022/06/16 11:45:56;;;;;;;;;3.60;3.60;;;;;30.87;27.25;99804.28;6343622;20;2744060;-64
2022/06/16 11:48:34;;;;;;;;;4.00;4.00;;;;;31.37;26.49;99804.28;6290274;20;2748175;-63
2022/06/16 11:51:54;;;;;;;;;4.60;4.00;;;;;31.66;26.88;99792.50;6341410;20;2749237;-64
2022/06/16 11:54:47;;;;;;;;;7.00;5.00;;;;;30.57;27.59;99786.31;6289859;20;2729409;-61
2022/06/16 11:57:43;;;;;;;;;6.00;6.00;;;;;31.20;28.48;99784.56;6343954;20;2737754;-62
2022/06/16 12:00:35;;;;;;;;;6.67;6.00;;;;;29.34;30.03;99766.91;6295952;20;2748177;-63
2022/06/16 12:03:57;;;;;;;;;7.67;6.00;;;;;30.02;28.96;99769.31;6320834;20;2739839;-62
2022/06/16 12:07:10;;;;;;;;;6.33;6.33;;;;;31.39;28.89;99774.44;6320303;20;2746304;-62
2022/06/16 12:09:42;;;;;;;;;4.67;4.67;;;;;30.94;28.58;99774.53;6317416;20;2729415;-61
2022/06/16 12:13:17;;;;;;;;;5.67;5.67;;;;;30.26;28.34;99769.66;6321918;20;2732541;-60
2022/06/16 12:16:08;;;;;;;;;4.67;4.67;;;;;30.80;28.72;99760.75;6321619;20;2744025;-60
2022/06/16 12:18:54;;;;;;;;;5.67;5.67;;;;;30.88;28.06;99758.81;6317287;20;2744029;-62
2022/06/16 12:21:43;;;;;;;;;7.00;5.67;;;;;31.16;28.68;99758.38;6316802;20;2737776;-61
2022/06/16 12:24:47;;;;;;;;;4.67;4.67;;;;;31.31;27.89;99756.09;6319615;20;2738905;-62